Time;durP1;ratioP1;P1;durP2;ratioP2;P2;SDS_P1;SDS_P2;PMS_P1;PMS_P2;Temp;Humidity;BMP_temperature;BMP_pressure;BME280_temperature;BME280_humidity;BME280_pressure;Samples;Min_cycle;Max_cycle;Signal;HPM_P1;HPM_P2
2021/12/27 00:00:51;;;;;;;26.10;9.80;;;-3.30;99.90;;;;;;5023145;28;20033;-77
2021/12/27 00:03:17;;;;;;;22.88;8.50;;;-3.30;99.90;;;;;;5034713;28;20085;-78
2021/12/27 00:05:42;;;;;;;27.88;9.32;;;-3.30;99.90;;;;;;5018787;28;20025;-79
2021/12/27 00:08:08;;;;;;;31.42;10.27;;;-3.40;99.90;;;;;;5019185;28;20067;-79
2021/12/27 00:10:34;;;;;;;30.52;9.43;;;-3.30;99.90;;;;;;5035591;28;20021;-79
2021/12/27 00:13:00;;;;;;;27.50;10.45;;;-3.40;99.90;;;;;;5036977;28;20071;-78
2021/12/27 00:15:26;;;;;;;31.60;11.02;;;-3.40;99.90;;;;;;5035290;28;20390;-78
2021/12/27 00:17:52;;;;;;;31.60;10.68;;;-3.50;99.90;;;;;;5036346;28;20037;-78
2021/12/27 00:20:19;;;;;;;33.22;11.57;;;-3.40;99.90;;;;;;5038704;28;20022;-78
2021/12/27 00:22:46;;;;;;;31.92;12.18;;;-3.40;99.90;;;;;;5048229;28;20021;-77
2021/12/27 00:25:13;;;;;;;34.97;11.07;;;-3.40;99.90;;;;;;5044521;28;20021;-79
2021/12/27 00:27:39;;;;;;;31.80;11.43;;;-3.50;99.90;;;;;;5037431;28;20160;-79
2021/12/27 00:30:06;;;;;;;40.65;12.85;;;-3.50;99.90;;;;;;5035301;28;20056;-77
2021/12/27 00:32:37;;;;;;;31.00;11.85;;;-3.50;99.90;;;;;;5035740;28;20026;-78
2021/12/27 00:35:05;;;;;;;34.00;11.85;;;-3.50;99.90;;;;;;5069203;22;20047;-80
2021/12/27 00:37:31;;;;;;;35.20;11.57;;;-3.40;99.90;;;;;;5046453;28;20033;-79
2021/12/27 00:39:57;;;;;;;36.67;11.57;;;-3.40;99.90;;;;;;5072384;28;20028;-78
2021/12/27 00:42:22;;;;;;;31.05;11.38;;;-3.50;99.90;;;;;;5068257;28;20212;-79
2021/12/27 00:44:48;;;;;;;41.65;12.35;;;-3.50;99.90;;;;;;5056975;28;20033;-79
2021/12/27 00:47:14;;;;;;;36.25;12.90;;;-3.50;99.90;;;;;;5044953;28;20033;-78
2021/12/27 00:49:40;;;;;;;36.75;12.80;;;-3.50;99.90;;;;;;5051152;28;20014;-75
2021/12/27 00:52:06;;;;;;;36.42;11.80;;;-3.40;99.90;;;;;;5055926;28;20037;-77
2021/12/27 00:54:31;;;;;;;36.15;12.55;;;-3.40;99.90;;;;;;5051925;28;20037;-78
2021/12/27 00:56:57;;;;;;;32.88;11.45;;;-3.40;99.90;;;;;;5050375;28;20037;-78
2021/12/27 00:59:22;;;;;;;41.33;13.30;;;-3.30;99.90;;;;;;5048797;28;20025;-78
2021/12/27 01:01:48;;;;;;;35.40;12.45;;;-3.30;99.90;;;;;;5030932;28;20033;-79
2021/12/27 01:04:13;;;;;;;38.03;12.02;;;-3.40;99.90;;;;;;5027912;28;20040;-78
2021/12/27 01:06:39;;;;;;;31.27;12.68;;;-3.40;99.90;;;;;;5047388;28;20025;-78
2021/12/27 01:09:05;;;;;;;43.75;13.88;;;-3.40;99.90;;;;;;5043535;28;20022;-80
2021/12/27 01:11:56;;;;;;;44.10;13.18;;;-3.40;99.90;;;;;;5049350;28;20021;-80
2021/12/27 01:14:38;;;;;;;41.65;13.20;;;-3.30;99.90;;;;;;5051485;28;20017;-76
2021/12/27 01:17:04;;;;;;;41.70;13.45;;;-3.30;99.90;;;;;;5050574;28;20036;-76
2021/12/27 01:19:30;;;;;;;38.85;13.93;;;-3.40;99.90;;;;;;5039741;28;20025;-77
2021/12/27 01:21:55;;;;;;;33.70;12.30;;;-3.40;99.90;;;;;;5057483;28;20044;-75
2021/12/27 01:24:21;;;;;;;35.58;13.65;;;-3.40;99.90;;;;;;5053087;28;20029;-76
2021/12/27 01:26:47;;;;;;;34.92;12.85;;;-3.30;99.90;;;;;;5040185;28;20044;-77
2021/12/27 01:29:12;;;;;;;40.05;13.55;;;-3.30;99.90;;;;;;5059603;28;20036;-76
2021/12/27 01:31:38;;;;;;;43.55;14.38;;;-3.30;99.90;;;;;;5059486;28;20017;-76
2021/12/27 01:34:03;;;;;;;40.42;13.90;;;-3.30;99.90;;;;;;5059492;28;20081;-76
2021/12/27 01:36:32;;;;;;;41.55;14.07;;;-3.30;99.90;;;;;;5057455;28;20033;-76
2021/12/27 01:39:00;;;;;;;40.80;12.45;;;-3.30;99.90;;;;;;5041963;28;20029;-77
2021/12/27 01:41:26;;;;;;;47.63;13.48;;;-3.20;99.90;;;;;;5057996;28;20017;-76
2021/12/27 01:43:54;;;;;;;41.42;13.73;;;-3.20;99.90;;;;;;5058344;28;20044;-75
2021/12/27 01:46:23;;;;;;;45.28;14.43;;;-3.20;99.90;;;;;;5053061;28;20045;-78
2021/12/27 01:48:57;;;;;;;39.50;14.20;;;-3.20;99.90;;;;;;5053968;28;20014;-77
2021/12/27 01:51:28;;;;;;;44.35;14.48;;;-3.20;99.90;;;;;;5056646;28;20073;-76
2021/12/27 01:53:55;;;;;;;45.35;14.55;;;-3.20;99.90;;;;;;5056365;28;20060;-79
2021/12/27 01:56:22;;;;;;;38.97;13.70;;;-3.20;99.90;;;;;;5055552;28;20030;-78
2021/12/27 01:58:49;;;;;;;38.90;14.30;;;-3.20;99.90;;;;;;5037714;28;20040;-78
2021/12/27 02:01:15;;;;;;;35.35;13.90;;;-3.30;99.90;;;;;;5055060;28;20044;-77
2021/12/27 02:03:42;;;;;;;45.72;15.32;;;-3.30;99.90;;;;;;5054660;28;20057;-79
2021/12/27 02:06:09;;;;;;;47.03;15.55;;;-3.20;99.90;;;;;;5037237;28;20040;-80
2021/12/27 02:08:37;;;;;;;47.80;15.32;;;-3.20;99.90;;;;;;5047371;28;20026;-78
2021/12/27 02:11:04;;;;;;;40.05;13.85;;;-3.20;99.90;;;;;;5047112;28;20364;-79
2021/12/27 02:13:29;;;;;;;55.35;16.40;;;-3.20;99.90;;;;;;5046040;28;20022;-79
2021/12/27 02:15:55;;;;;;;46.55;15.32;;;-3.20;99.90;;;;;;5024453;28;20056;-78
2021/12/27 02:18:20;;;;;;;47.42;15.38;;;-3.20;99.90;;;;;;5046264;28;20026;-79
2021/12/27 02:20:46;;;;;;;43.75;15.35;;;-3.20;99.90;;;;;;5044653;28;20194;-79
2021/12/27 02:23:18;;;;;;;53.42;14.70;;;-3.20;99.90;;;;;;5024474;28;20022;-78
2021/12/27 02:25:49;;;;;;;52.78;16.35;;;-3.10;99.90;;;;;;5041292;28;20029;-78
2021/12/27 02:28:20;;;;;;;54.25;16.35;;;-3.20;99.90;;;;;;5023880;28;20060;-79
2021/12/27 02:30:47;;;;;;;48.60;14.77;;;-3.10;99.90;;;;;;5041687;28;20025;-79
2021/12/27 02:33:14;;;;;;;42.10;14.07;;;-3.10;99.90;;;;;;5042006;28;20045;-79
2021/12/27 02:36:00;;;;;;;42.38;15.40;;;-3.10;99.90;;;;;;5021863;28;20029;-77
2021/12/27 02:38:29;;;;;;;44.30;15.02;;;-3.20;99.90;;;;;;5040132;28;20025;-78
2021/12/27 02:40:56;;;;;;;53.28;17.60;;;-3.10;99.90;;;;;;5042968;28;20025;-77
2021/12/27 02:43:24;;;;;;;49.70;17.38;;;-3.10;99.90;;;;;;5046352;28;20024;-76
2021/12/27 02:45:55;;;;;;;46.35;16.60;;;-3.00;99.90;;;;;;5057937;28;20041;-77
2021/12/27 02:48:25;;;;;;;49.88;16.17;;;-2.90;99.90;;;;;;5055718;28;20044;-77
2021/12/27 02:50:52;;;;;;;46.83;16.58;;;-2.90;99.90;;;;;;5047598;28;20052;-76
2021/12/27 02:53:18;;;;;;;51.83;16.23;;;-2.80;99.90;;;;;;5018323;28;20033;-76
2021/12/27 02:55:46;;;;;;;47.28;15.85;;;-2.80;99.90;;;;;;5035438;28;20044;-76
2021/12/27 02:58:12;;;;;;;51.85;16.58;;;-2.70;99.90;;;;;;5037035;28;20025;-77
2021/12/27 03:00:41;;;;;;;46.35;17.08;;;-2.70;99.90;;;;;;5035003;28;20068;-77
2021/12/27 03:03:07;;;;;;;48.17;16.52;;;-2.70;99.90;;;;;;5018414;28;20033;-76
2021/12/27 03:05:33;;;;;;;50.50;17.00;;;-2.70;99.90;;;;;;5035871;28;20033;-75
2021/12/27 03:08:00;;;;;;;50.33;17.50;;;-2.70;99.90;;;;;;5024783;28;20025;-76
2021/12/27 03:10:31;;;;;;;45.45;16.23;;;-2.70;99.90;;;;;;5036190;28;20043;-76
2021/12/27 03:12:59;;;;;;;45.50;15.68;;;-2.60;99.90;;;;;;5035862;28;20104;-76
2021/12/27 03:15:24;;;;;;;47.13;16.50;;;-2.70;99.90;;;;;;5035702;28;20100;-76
2021/12/27 03:17:52;;;;;;;47.80;15.63;;;-2.60;99.90;;;;;;5037258;28;20067;-75
2021/12/27 03:20:20;;;;;;;44.50;15.93;;;-2.60;99.90;;;;;;5016855;28;20025;-76
2021/12/27 03:22:46;;;;;;;45.28;15.38;;;-2.60;99.90;;;;;;5034226;28;20473;-77
2021/12/27 03:25:17;;;;;;;45.00;16.80;;;-2.60;99.90;;;;;;5016807;28;20029;-76
2021/12/27 03:27:43;;;;;;;53.00;15.68;;;-2.50;99.90;;;;;;5034725;28;20021;-76
2021/12/27 03:30:16;;;;;;;54.60;15.60;;;-2.50;99.90;;;;;;5020104;28;20052;-76
2021/12/27 03:32:43;;;;;;;44.88;16.15;;;-2.60;99.90;;;;;;5044049;28;20010;-77
2021/12/27 03:35:13;;;;;;;51.17;14.85;;;-2.60;99.90;;;;;;5055447;28;20033;-75
2021/12/27 03:37:45;;;;;;;53.95;16.70;;;-2.70;99.90;;;;;;5032695;28;20009;-77
2021/12/27 03:40:14;;;;;;;47.40;16.00;;;-2.80;99.90;;;;;;5051477;28;20009;-76
2021/12/27 03:42:40;;;;;;;52.50;17.17;;;-2.80;99.90;;;;;;5025733;28;20018;-78
2021/12/27 03:45:07;;;;;;;49.22;16.60;;;-2.90;99.90;;;;;;5020640;28;20039;-77
2021/12/27 03:47:32;;;;;;;49.78;16.92;;;-2.90;99.90;;;;;;5038158;28;20072;-78
2021/12/27 03:49:58;;;;;;;55.65;17.27;;;-3.00;99.90;;;;;;5038660;28;20025;-77
2021/12/27 03:52:24;;;;;;;49.13;16.48;;;-2.90;99.90;;;;;;5057251;28;20040;-75
2021/12/27 03:54:50;;;;;;;49.53;16.25;;;-3.00;99.90;;;;;;5057786;28;20029;-75
2021/12/27 03:57:16;;;;;;;48.50;16.77;;;-3.00;99.90;;;;;;5057206;28;20026;-75
2021/12/27 04:02:09;;;;;;;44.10;16.10;;;-2.90;99.90;;;;;;5037941;28;20089;-77
2021/12/27 04:04:34;;;;;;;47.72;16.98;;;-2.90;99.90;;;;;;5051275;28;20013;-75
2021/12/27 04:07:00;;;;;;;45.28;16.10;;;-2.90;99.90;;;;;;5039781;28;20045;-75
2021/12/27 04:09:27;;;;;;;47.78;17.75;;;-2.80;99.90;;;;;;5044743;28;20486;-76
2021/12/27 04:11:52;;;;;;;51.50;17.75;;;-2.80;99.90;;;;;;5042527;28;20033;-78
2021/12/27 04:14:18;;;;;;;55.92;16.75;;;-2.80;99.90;;;;;;5021054;28;20079;-78
2021/12/27 04:16:44;;;;;;;54.65;18.40;;;-2.90;99.90;;;;;;5036002;28;20026;-76
2021/12/27 04:19:09;;;;;;;50.15;17.20;;;-2.80;99.90;;;;;;5035611;28;20064;-78
2021/12/27 04:21:36;;;;;;;53.13;17.42;;;-2.80;99.90;;;;;;5037243;28;20048;-77
2021/12/27 04:24:02;;;;;;;53.45;18.45;;;-2.80;99.90;;;;;;5030319;28;20030;-77
2021/12/27 04:26:27;;;;;;;47.35;17.35;;;-2.70;99.90;;;;;;5039005;28;20056;-79
2021/12/27 04:28:53;;;;;;;57.72;17.85;;;-2.70;99.90;;;;;;5018873;28;20022;-78
2021/12/27 04:31:18;;;;;;;54.33;19.25;;;-2.70;99.90;;;;;;5035816;28;20052;-77
2021/12/27 04:33:44;;;;;;;58.08;18.60;;;-2.70;99.90;;;;;;5018283;28;20083;-78
2021/12/27 04:36:10;;;;;;;53.55;18.27;;;-2.70;99.90;;;;;;5035186;28;20048;-77
2021/12/27 04:38:36;;;;;;;47.22;16.88;;;-2.70;99.90;;;;;;5035448;28;20048;-77
2021/12/27 04:41:04;;;;;;;52.80;18.52;;;-2.70;99.90;;;;;;5036548;28;20418;-77
2021/12/27 04:43:29;;;;;;;55.80;18.73;;;-2.70;99.90;;;;;;5037992;28;20389;-77
2021/12/27 04:45:55;;;;;;;54.17;18.48;;;-2.80;99.90;;;;;;5030795;28;20060;-75
2021/12/27 04:48:23;;;;;;;61.08;19.83;;;-2.80;99.90;;;;;;5045422;28;20050;-77
2021/12/27 04:50:49;;;;;;;54.17;18.65;;;-2.80;99.90;;;;;;5023261;28;20116;-77
2021/12/27 04:53:15;;;;;;;54.10;19.23;;;-2.80;99.90;;;;;;5041541;28;20030;-76
2021/12/27 04:55:41;;;;;;;55.63;19.20;;;-2.80;99.90;;;;;;5024596;28;20025;-76
2021/12/27 04:58:09;;;;;;;54.22;18.58;;;-2.80;99.90;;;;;;5048167;28;20026;-77
2021/12/27 05:00:35;;;;;;;57.35;20.10;;;-2.70;99.90;;;;;;5034576;28;20328;-77
2021/12/27 05:03:01;;;;;;;60.33;19.92;;;-2.70;99.90;;;;;;5052471;28;20018;-77
2021/12/27 05:05:26;;;;;;;55.53;19.00;;;-2.70;99.90;;;;;;5046637;28;20029;-77
2021/12/27 05:07:52;;;;;;;61.03;19.65;;;-2.70;99.90;;;;;;5044676;28;20033;-77
2021/12/27 05:10:18;;;;;;;59.65;20.30;;;-2.70;99.90;;;;;;5045143;28;20018;-77
2021/12/27 05:12:44;;;;;;;58.95;20.45;;;-2.60;99.90;;;;;;5022670;28;20025;-77
2021/12/27 05:15:10;;;;;;;56.05;19.80;;;-2.60;99.90;;;;;;5043412;28;20013;-77
2021/12/27 05:17:36;;;;;;;60.25;20.75;;;-2.60;99.90;;;;;;5043988;28;20105;-78
2021/12/27 05:20:08;;;;;;;67.53;19.85;;;-2.50;99.90;;;;;;5044551;28;20029;-76
2021/12/27 05:22:34;;;;;;;61.13;19.83;;;-2.50;99.90;;;;;;5052810;28;20112;-78
2021/12/27 05:24:59;;;;;;;63.33;20.25;;;-2.40;99.90;;;;;;5054991;28;20021;-75
2021/12/27 05:27:25;;;;;;;61.58;21.10;;;-2.40;99.90;;;;;;5050766;28;20045;-78
2021/12/27 05:29:51;;;;;;;59.95;19.63;;;-2.40;99.90;;;;;;5024153;28;20051;-79
2021/12/27 05:32:16;;;;;;;61.55;19.77;;;-2.40;99.90;;;;;;5017812;28;20087;-79
2021/12/27 05:34:42;;;;;;;59.85;19.90;;;-2.30;99.90;;;;;;5041326;28;20034;-78
2021/12/27 05:37:07;;;;;;;53.40;19.73;;;-2.30;99.90;;;;;;5043808;28;20052;-77
2021/12/27 05:39:34;;;;;;;63.05;20.92;;;-2.30;99.90;;;;;;5026151;28;20084;-78
2021/12/27 05:41:59;;;;;;;58.65;20.55;;;-2.30;99.90;;;;;;5029323;28;20041;-77
2021/12/27 05:44:25;;;;;;;60.30;21.00;;;-2.30;99.90;;;;;;5043475;28;20032;-81
2021/12/27 05:46:51;;;;;;;58.10;21.10;;;-2.30;99.90;;;;;;5024653;28;20018;-78
2021/12/27 05:49:16;;;;;;;61.03;20.80;;;-2.30;99.90;;;;;;5023909;28;20052;-77
2021/12/27 05:51:43;;;;;;;60.95;20.98;;;-2.20;99.90;;;;;;5040726;28;20496;-78
2021/12/27 05:54:10;;;;;;;59.08;20.45;;;-2.20;99.90;;;;;;5038455;28;20073;-77
2021/12/27 05:56:36;;;;;;;63.42;20.38;;;-2.20;99.90;;;;;;5020098;28;20030;-76
2021/12/27 05:59:03;;;;;;;60.40;20.58;;;-2.20;99.90;;;;;;5039025;28;20047;-78
2021/12/27 06:01:28;;;;;;;68.90;21.23;;;-2.20;99.90;;;;;;5042569;28;20041;-76
2021/12/27 06:03:57;;;;;;;60.72;21.90;;;-2.10;99.90;;;;;;5049680;28;20056;-77
2021/12/27 06:06:23;;;;;;;65.57;22.10;;;-2.20;99.90;;;;;;5036018;28;20045;-77
2021/12/27 06:08:49;;;;;;;61.00;22.65;;;-2.30;99.90;;;;;;5055393;28;20004;-76
2021/12/27 06:11:15;;;;;;;60.42;20.98;;;-2.20;99.90;;;;;;5038464;28;20026;-76
2021/12/27 06:13:40;;;;;;;63.00;21.13;;;-2.20;99.90;;;;;;5037173;28;20136;-77
2021/12/27 06:16:06;;;;;;;66.78;22.60;;;-2.20;99.90;;;;;;5053306;28;20033;-78
2021/12/27 06:18:32;;;;;;;68.03;22.48;;;-2.30;99.90;;;;;;5047363;28;20034;-77
2021/12/27 06:20:57;;;;;;;64.63;22.20;;;-2.20;99.90;;;;;;5023434;28;20116;-76
2021/12/27 06:23:23;;;;;;;69.25;22.40;;;-2.20;99.90;;;;;;5025438;28;20042;-77
2021/12/27 06:25:49;;;;;;;68.03;22.65;;;-2.20;99.90;;;;;;5040363;28;20029;-75
2021/12/27 06:28:16;;;;;;;71.68;22.50;;;-2.30;99.90;;;;;;5037828;28;20021;-77
2021/12/27 06:30:42;;;;;;;61.90;21.88;;;-2.30;99.90;;;;;;5037266;28;20014;-76
2021/12/27 06:33:07;;;;;;;59.10;22.23;;;-2.30;99.90;;;;;;5031531;28;20461;-76
2021/12/27 06:35:33;;;;;;;58.78;22.00;;;-2.30;99.90;;;;;;5042195;28;20042;-76
2021/12/27 06:37:59;;;;;;;67.07;22.58;;;-2.40;99.90;;;;;;5035585;28;20072;-75
2021/12/27 06:40:24;;;;;;;64.82;24.00;;;-2.40;99.90;;;;;;5018852;28;20052;-76
2021/12/27 06:42:50;;;;;;;68.90;22.92;;;-2.40;99.90;;;;;;5036727;28;20113;-77
2021/12/27 06:45:16;;;;;;;68.95;22.58;;;-2.40;99.90;;;;;;5019191;28;20025;-76
2021/12/27 06:47:42;;;;;;;73.05;23.20;;;-2.40;99.90;;;;;;5040347;28;20366;-77
2021/12/27 06:50:09;;;;;;;63.63;22.85;;;-2.40;99.90;;;;;;5036276;28;20060;-76
2021/12/27 06:52:35;;;;;;;67.43;23.98;;;-2.40;99.90;;;;;;5058609;28;20005;-77
2021/12/27 06:55:01;;;;;;;70.13;22.58;;;-2.40;99.90;;;;;;5058465;28;20036;-75
2021/12/27 06:57:27;;;;;;;65.80;23.38;;;-2.40;99.90;;;;;;5057797;28;20032;-77
2021/12/27 06:59:52;;;;;;;66.85;23.45;;;-2.50;99.90;;;;;;5055880;28;20034;-76
2021/12/27 07:02:18;;;;;;;68.68;22.65;;;-2.40;99.90;;;;;;5025845;28;20052;-76
2021/12/27 07:04:44;;;;;;;69.50;24.48;;;-2.40;99.90;;;;;;5036694;28;20025;-76
2021/12/27 07:07:09;;;;;;;71.38;23.98;;;-2.40;99.90;;;;;;5036594;28;20030;-76
2021/12/27 07:09:36;;;;;;;61.10;22.20;;;-2.40;99.90;;;;;;5036786;28;20506;-77
2021/12/27 07:12:02;;;;;;;65.07;23.80;;;-2.40;99.90;;;;;;5050344;28;20033;-78
2021/12/27 07:14:28;;;;;;;71.03;23.17;;;-2.40;99.90;;;;;;5042101;28;20424;-76
2021/12/27 07:16:53;;;;;;;74.97;25.70;;;-2.30;99.90;;;;;;5041862;28;20045;-75
2021/12/27 07:19:19;;;;;;;60.88;22.75;;;-2.30;99.90;;;;;;5053170;28;20010;-76
2021/12/27 07:21:44;;;;;;;69.38;24.27;;;-2.40;99.90;;;;;;5056181;28;20017;-77
2021/12/27 07:24:10;;;;;;;62.95;23.27;;;-2.40;99.90;;;;;;5047703;28;20029;-78
2021/12/27 07:26:36;;;;;;;68.18;23.55;;;-2.40;99.90;;;;;;5022031;28;20036;-76
2021/12/27 07:29:01;;;;;;;72.38;26.35;;;-2.40;99.90;;;;;;5039101;28;20519;-78
2021/12/27 07:31:27;;;;;;;73.18;24.63;;;-2.40;99.90;;;;;;5020802;28;20025;-77
2021/12/27 07:33:54;;;;;;;63.58;24.10;;;-2.30;99.90;;;;;;5020248;28;20541;-77
2021/12/27 07:36:20;;;;;;;70.20;24.80;;;-2.30;99.90;;;;;;5021113;28;20079;-77
2021/12/27 07:38:46;;;;;;;74.30;26.13;;;-2.30;99.90;;;;;;5036275;28;20029;-75
2021/12/27 07:41:12;;;;;;;71.22;24.40;;;-2.20;99.90;;;;;;5037486;28;20021;-76
2021/12/27 07:43:37;;;;;;;74.32;25.27;;;-2.20;99.90;;;;;;5036629;28;20044;-76
2021/12/27 07:46:03;;;;;;;76.70;25.52;;;-2.20;99.90;;;;;;5039152;28;20025;-77
2021/12/27 07:48:29;;;;;;;66.40;24.88;;;-2.20;99.90;;;;;;5018573;28;20363;-77
2021/12/27 07:50:55;;;;;;;70.22;25.70;;;-2.10;99.90;;;;;;5039356;28;20025;-77
2021/12/27 07:53:20;;;;;;;70.20;25.33;;;-2.10;99.90;;;;;;5021489;28;20047;-76
2021/12/27 07:55:46;;;;;;;80.07;25.42;;;-2.10;99.90;;;;;;5052663;28;20079;-77
2021/12/27 07:58:12;;;;;;;68.45;25.40;;;-2.10;99.90;;;;;;5044550;28;20089;-76
2021/12/27 08:00:37;;;;;;;72.20;26.17;;;-2.10;99.90;;;;;;5041990;28;20478;-77
2021/12/27 08:03:03;;;;;;;71.90;26.45;;;-2.10;99.90;;;;;;5042251;28;20036;-77
2021/12/27 08:05:28;;;;;;;68.50;25.95;;;-2.10;99.90;;;;;;5040483;28;20048;-75
2021/12/27 08:07:54;;;;;;;77.75;28.00;;;-2.10;99.90;;;;;;5022825;28;20113;-74
2021/12/27 08:10:20;;;;;;;76.88;26.20;;;-2.00;99.90;;;;;;5020592;28;20366;-75
2021/12/27 08:12:45;;;;;;;73.35;27.05;;;-2.00;99.90;;;;;;5036016;28;20077;-74
2021/12/27 08:15:12;;;;;;;70.10;25.45;;;-2.00;99.90;;;;;;5016922;28;20030;-75
2021/12/27 08:17:38;;;;;;;69.85;25.73;;;-1.90;99.90;;;;;;5035298;28;20080;-76
2021/12/27 08:20:06;;;;;;;73.72;26.75;;;-1.90;99.90;;;;;;5026179;28;20026;-75
2021/12/27 08:22:32;;;;;;;73.10;26.83;;;-1.90;99.90;;;;;;5026078;28;20091;-77
2021/12/27 08:24:57;;;;;;;73.63;26.00;;;-1.90;99.90;;;;;;5030737;28;20029;-74
2021/12/27 08:27:26;;;;;;;70.47;26.52;;;-1.90;99.90;;;;;;5059838;28;20048;-76
2021/12/27 08:29:51;;;;;;;73.22;26.65;;;-1.80;99.90;;;;;;5033084;28;20037;-76
2021/12/27 08:32:17;;;;;;;69.45;27.00;;;-1.80;99.90;;;;;;5024050;28;20030;-77
2021/12/27 08:34:43;;;;;;;64.75;25.08;;;-1.70;99.90;;;;;;5041848;28;20115;-75
2021/12/27 08:37:09;;;;;;;69.43;26.85;;;-1.70;99.90;;;;;;5022816;28;20381;-76
2021/12/27 08:39:35;;;;;;;76.25;28.48;;;-1.70;99.90;;;;;;5023679;28;20052;-76
2021/12/27 08:42:03;;;;;;;80.10;26.58;;;-1.60;99.90;;;;;;5025845;28;20017;-78
2021/12/27 08:44:29;;;;;;;78.13;25.63;;;-1.60;99.90;;;;;;5034057;28;20028;-77
2021/12/27 08:46:55;;;;;;;75.00;26.83;;;-1.50;99.90;;;;;;5053239;28;20030;-78
2021/12/27 08:49:20;;;;;;;75.45;27.17;;;-1.40;99.90;;;;;;5052900;28;20049;-78
2021/12/27 08:51:46;;;;;;;78.82;27.30;;;-1.40;99.90;;;;;;5051636;28;20081;-77
2021/12/27 08:54:11;;;;;;;78.93;28.45;;;-1.40;99.90;;;;;;5054192;28;20068;-78
2021/12/27 08:56:38;;;;;;;110.20;32.10;;;-1.40;99.90;;;;;;5050309;28;20041;-78
2021/12/27 08:59:05;;;;;;;75.15;27.83;;;-1.40;99.90;;;;;;5043174;28;20030;-79
2021/12/27 09:01:31;;;;;;;71.95;27.85;;;-1.30;99.90;;;;;;5043211;28;20053;-77
2021/12/27 09:03:56;;;;;;;76.47;27.67;;;-1.20;99.90;;;;;;5040442;28;20029;-78
2021/12/27 09:06:22;;;;;;;75.57;27.85;;;-1.20;99.90;;;;;;5037784;28;20425;-77
2021/12/27 09:08:48;;;;;;;77.78;28.58;;;-1.30;99.90;;;;;;5041674;28;20021;-78
2021/12/27 09:11:15;;;;;;;76.05;29.02;;;-1.30;99.90;;;;;;5046758;28;20024;-77
2021/12/27 09:13:41;;;;;;;74.15;27.65;;;-1.30;99.90;;;;;;5028146;28;20028;-77
2021/12/27 09:16:09;;;;;;;83.30;29.10;;;-1.30;99.90;;;;;;5045672;28;20486;-78
2021/12/27 09:18:35;;;;;;;79.85;28.23;;;-1.30;99.90;;;;;;5045162;28;20033;-78
2021/12/27 09:21:02;;;;;;;82.93;30.52;;;-1.30;99.90;;;;;;5043029;28;20022;-79
2021/12/27 09:23:28;;;;;;;73.22;27.92;;;-1.20;99.90;;;;;;5042985;28;20087;-78
2021/12/27 09:25:53;;;;;;;78.97;30.15;;;-1.20;99.90;;;;;;5042469;28;20030;-77
2021/12/27 09:28:19;;;;;;;75.50;28.48;;;-1.20;99.90;;;;;;5043616;28;20018;-78
2021/12/27 09:30:45;;;;;;;76.50;28.85;;;-1.20;99.90;;;;;;5026248;28;20049;-78
2021/12/27 09:33:11;;;;;;;82.68;29.23;;;-1.20;99.90;;;;;;5024262;28;20026;-78
2021/12/27 09:35:37;;;;;;;82.00;29.13;;;-1.20;99.90;;;;;;5023752;28;20098;-77
2021/12/27 09:38:03;;;;;;;83.63;30.33;;;-1.20;99.90;;;;;;5041829;28;20030;-78
2021/12/27 09:40:29;;;;;;;75.78;30.00;;;-1.20;99.90;;;;;;5041143;28;20041;-78
2021/12/27 09:42:56;;;;;;;79.35;30.83;;;-1.20;99.90;;;;;;5042424;28;20552;-77
2021/12/27 09:45:22;;;;;;;90.50;32.55;;;-1.10;99.90;;;;;;5042446;28;20030;-78
2021/12/27 09:47:50;;;;;;;82.70;30.35;;;-1.00;99.90;;;;;;5042026;28;20025;-78
2021/12/27 09:50:23;;;;;;;79.00;29.73;;;-1.10;99.90;;;;;;5042203;28;20029;-78
2021/12/27 09:52:49;;;;;;;75.45;29.50;;;-1.10;99.90;;;;;;5043460;28;20044;-78
2021/12/27 09:55:16;;;;;;;77.88;29.90;;;-1.00;99.90;;;;;;5045255;28;20081;-79
2021/12/27 09:57:41;;;;;;;83.47;30.30;;;-1.10;99.90;;;;;;5046437;28;20032;-78
2021/12/27 10:00:09;;;;;;;81.07;29.40;;;-1.10;99.90;;;;;;5026991;28;20061;-78
2021/12/27 10:02:36;;;;;;;84.80;30.67;;;-1.10;99.90;;;;;;5031691;28;20037;-79
2021/12/27 10:05:02;;;;;;;83.72;31.10;;;-1.10;99.90;;;;;;5012984;28;20049;-78
2021/12/27 10:07:29;;;;;;;85.25;31.35;;;-1.10;99.90;;;;;;5035957;28;20049;-77
2021/12/27 10:09:58;;;;;;;84.20;29.98;;;-1.10;99.90;;;;;;5039613;28;20038;-77
2021/12/27 10:12:24;;;;;;;93.40;31.63;;;-1.00;99.90;;;;;;5039493;28;20010;-77
2021/12/27 10:14:57;;;;;;;81.43;30.90;;;-1.00;99.90;;;;;;5022194;28;20022;-79
2021/12/27 10:17:23;;;;;;;84.05;32.20;;;-0.90;99.90;;;;;;5022253;28;20025;-78
2021/12/27 10:19:50;;;;;;;83.40;32.13;;;-0.90;99.90;;;;;;5039501;28;20038;-77
2021/12/27 10:22:16;;;;;;;92.43;33.00;;;-0.90;99.90;;;;;;5039751;28;20041;-77
2021/12/27 10:24:42;;;;;;;81.38;31.00;;;-0.90;99.90;;;;;;5021899;28;20084;-76
2021/12/27 10:27:08;;;;;;;87.22;32.75;;;-0.90;99.90;;;;;;5039484;28;20037;-77
2021/12/27 10:29:41;;;;;;;81.95;32.08;;;-0.90;99.90;;;;;;5022655;28;20050;-77
2021/12/27 10:32:11;;;;;;;91.05;32.78;;;-0.90;99.90;;;;;;5038905;28;20014;-76
2021/12/27 10:34:45;;;;;;;95.75;34.53;;;-0.90;99.90;;;;;;5021810;28;20051;-78
2021/12/27 10:37:19;;;;;;;86.97;33.30;;;-0.80;99.90;;;;;;5039051;28;20045;-77
2021/12/27 10:40:02;;;;;;;108.50;42.15;;;-0.80;99.90;;;;;;5039156;28;20048;-76
2021/12/27 10:42:33;;;;;;;88.47;32.75;;;-0.80;99.90;;;;;;5012608;28;20033;-75
2021/12/27 10:45:02;;;;;;;91.32;33.85;;;-0.80;99.90;;;;;;5034720;28;20018;-74
2021/12/27 10:47:37;;;;;;;103.60;34.72;;;-0.80;99.90;;;;;;5018348;28;20026;-77
2021/12/27 10:50:06;;;;;;;86.60;32.25;;;-0.70;99.90;;;;;;5028214;28;20022;-74
2021/12/27 10:52:48;;;;;;;87.75;32.95;;;-0.70;99.90;;;;;;5034357;28;20018;-76
2021/12/27 10:55:16;;;;;;;94.65;35.30;;;-0.70;99.90;;;;;;5006345;28;20046;-78
2021/12/27 10:57:42;;;;;;;94.50;33.10;;;-0.60;99.90;;;;;;5004495;28;20030;-78
2021/12/27 11:00:17;;;;;;;87.60;34.28;;;-0.60;99.90;;;;;;5019175;28;20032;-78
2021/12/27 11:02:42;;;;;;;;;;;-0.50;99.90;;;;;;5019835;28;20053;-78
2021/12/27 11:05:27;;;;;;;94.28;33.97;;;-0.40;99.90;;;;;;5020577;28;19967;-78
2021/12/27 11:08:03;;;;;;;89.22;34.15;;;-0.30;99.90;;;;;;5029137;28;20030;-78
2021/12/27 11:10:31;;;;;;;89.78;32.28;;;-0.30;99.90;;;;;;5019593;28;20032;-77
2021/12/27 11:12:59;;;;;;;99.03;36.13;;;-0.30;99.90;;;;;;5019961;28;20076;-77
2021/12/27 11:15:30;;;;;;;85.85;34.55;;;-0.40;99.90;;;;;;5002858;28;20022;-78
2021/12/27 11:17:57;;;;;;;95.88;34.85;;;-0.30;99.90;;;;;;5022198;28;20026;-78
2021/12/27 11:20:24;;;;;;;93.10;35.10;;;-0.30;99.90;;;;;;5002815;28;20022;-79
2021/12/27 11:22:53;;;;;;;80.78;32.63;;;-0.30;99.90;;;;;;5005834;28;20079;-77
2021/12/27 11:25:36;;;;;;;94.90;35.28;;;-0.40;99.90;;;;;;5021200;28;20411;-78
2021/12/27 11:28:23;;;;;;;97.40;35.60;;;-0.40;99.90;;;;;;5024287;28;20053;-78
2021/12/27 11:30:49;;;;;;;91.63;35.22;;;-0.30;99.90;;;;;;5025435;28;20021;-77
2021/12/27 11:33:19;;;;;;;98.35;35.75;;;-0.20;99.90;;;;;;5028045;28;20316;-76
2021/12/27 11:36:06;;;;;;;87.47;35.67;;;-0.30;99.90;;;;;;5008278;28;20030;-77
2021/12/27 11:38:35;;;;;;;91.53;35.95;;;-0.30;99.90;;;;;;5025703;28;20049;-77
2021/12/27 11:41:07;;;;;;;102.32;36.05;;;-0.30;99.90;;;;;;5023871;28;20034;-77
2021/12/27 11:43:53;;;;;;;93.30;35.95;;;-0.30;99.90;;;;;;5024755;28;20058;-76
2021/12/27 11:46:23;;;;;;;95.05;37.85;;;-0.40;99.90;;;;;;5022256;28;20026;-78
2021/12/27 11:48:55;;;;;;;100.85;38.17;;;-0.40;99.90;;;;;;5024075;28;20109;-77
2021/12/27 11:51:40;;;;;;;103.65;38.72;;;-0.40;99.90;;;;;;5036741;28;20022;-76
2021/12/27 11:54:24;;;;;;;98.60;37.83;;;-0.30;99.90;;;;;;5020533;28;20020;-78
2021/12/27 11:56:50;;;;;;;90.32;34.92;;;-0.30;99.90;;;;;;5020140;28;20030;-77
2021/12/27 11:59:38;;;;;;;98.85;39.08;;;-0.30;99.90;;;;;;5036693;28;20022;-78
2021/12/27 12:02:15;;;;;;;90.80;37.85;;;-0.20;99.90;;;;;;5024468;28;20029;-77
2021/12/27 12:04:47;;;;;;;105.78;37.70;;;-0.20;99.90;;;;;;5003223;28;20068;-78
2021/12/27 12:07:34;;;;;;;93.13;36.22;;;-0.20;99.90;;;;;;5021518;28;20013;-77
2021/12/27 12:10:03;;;;;;;99.20;38.45;;;-0.20;99.90;;;;;;5022087;28;20152;-78
2021/12/27 12:12:29;;;;;;;105.75;38.28;;;-0.20;99.90;;;;;;4986500;28;20053;-78
2021/12/27 12:14:57;;;;;;;97.70;37.83;;;-0.20;99.90;;;;;;5025710;28;20422;-77
2021/12/27 12:17:52;;;;;;;112.82;38.17;;;-0.20;99.90;;;;;;5007641;28;20030;-76
2021/12/27 12:20:38;;;;;;;103.50;41.42;;;-0.20;99.90;;;;;;5037458;28;20036;-77
2021/12/27 12:23:08;;;;;;;103.88;38.25;;;-0.20;99.90;;;;;;5042791;28;20028;-79
2021/12/27 12:25:35;;;;;;;90.65;36.65;;;-0.20;99.90;;;;;;5038128;28;20029;-76
2021/12/27 12:28:09;;;;;;;99.57;38.60;;;-0.20;99.90;;;;;;5039616;28;20021;-78
2021/12/27 12:30:38;;;;;;;76.28;29.52;;;-0.20;99.90;;;;;;5023514;28;20022;-78
2021/12/27 12:33:08;;;;;;;111.82;39.38;;;-0.20;99.90;;;;;;5022163;28;20052;-78